Time;durP1;ratioP1;P1;durP2;ratioP2;P2;SDS_P1;SDS_P2;PMS_P1;PMS_P2;Temp;Humidity;BMP_temperature;BMP_pressure;BME280_temperature;BME280_humidity;BME280_pressure;Samples;Min_cycle;Max_cycle;Signal;HPM_P1;HPM_P2
2022/04/20 00:00:34;;;;;;;6.60;4.30;;;;;;;11.02;33.47;100035.25;117335;1186;23495;-46
2022/04/20 00:03:03;;;;;;;10.70;5.00;;;;;;;11.01;33.39;100034.39;117303;1186;22964;-48
2022/04/20 00:05:33;;;;;;;7.80;4.30;;;;;;;11.00;33.46;100036.86;117322;1181;21854;-54
2022/04/20 00:08:04;;;;;;;10.10;4.50;;;;;;;10.98;33.42;100036.55;117285;1186;21839;-53
2022/04/20 00:10:33;;;;;;;7.00;4.30;;;;;;;10.97;33.55;100037.81;117252;1186;23496;-54
2022/04/20 00:13:02;;;;;;;8.80;4.50;;;;;;;10.93;33.36;100038.05;117346;1185;21843;-54
2022/04/20 00:15:31;;;;;;;7.10;4.10;;;;;;;10.92;33.51;100038.95;117307;1185;23544;-54
2022/04/20 00:18:19;;;;;;;12.30;4.70;;;;;;;10.90;33.51;100035.84;117265;1186;22099;-45
2022/04/20 00:20:47;;;;;;;8.90;5.30;;;;;;;10.89;33.41;100032.52;117243;1186;23426;-46
2022/04/20 00:23:17;;;;;;;8.50;3.80;;;;;;;10.91;33.43;100034.75;117298;1186;23450;-54
2022/04/20 00:25:57;;;;;;;7.70;4.00;;;;;;;10.94;33.40;100027.33;117081;1187;24165;-46
2022/04/20 00:28:26;;;;;;;8.50;4.50;;;;;;;10.88;33.54;100030.08;117226;1186;23450;-45
2022/04/20 00:30:55;;;;;;;8.10;4.10;;;;;;;10.86;33.49;100033.08;117360;1186;21859;-54
2022/04/20 00:33:23;;;;;;;9.00;3.70;;;;;;;10.92;33.52;100033.68;117279;1186;21863;-46
2022/04/20 00:35:53;;;;;;;7.40;3.90;;;;;;;10.96;33.58;100036.92;117277;1185;23651;-46
2022/04/20 00:38:21;;;;;;;7.90;4.40;;;;;;;11.00;33.48;100037.58;117292;1185;23529;-54
2022/04/20 00:40:50;;;;;;;10.30;4.60;;;;;;;11.03;33.56;100038.58;117316;1185;23490;-46
2022/04/20 00:43:19;;;;;;;7.50;4.10;;;;;;;11.02;33.47;100039.83;117314;1185;24800;-46
2022/04/20 00:46:03;;;;;;;11.70;5.40;;;;;;;11.01;33.42;100043.02;117229;1186;23576;-46
2022/04/20 00:48:52;;;;;;;12.00;4.90;;;;;;;10.96;33.55;100041.34;117146;1188;23657;-54
2022/04/20 00:51:20;;;;;;;8.10;4.20;;;;;;;10.94;33.57;100043.83;117336;1186;24178;-47
2022/04/20 00:53:48;;;;;;;9.10;4.20;;;;;;;10.93;33.53;100046.31;117131;1189;22899;-54
2022/04/20 00:56:17;;;;;;;7.30;3.80;;;;;;;10.91;33.63;100049.33;117295;1186;24172;-54
2022/04/20 00:58:48;;;;;;;8.80;4.40;;;;;;;10.87;33.54;100045.69;117307;1185;23566;-46
2022/04/20 01:01:36;;;;;;;6.60;4.00;;;;;;;10.85;33.64;100043.98;117274;1186;23573;-54
2022/04/20 01:04:05;;;;;;;8.50;4.10;;;;;;;10.77;33.77;100045.73;117303;1186;22522;-47
2022/04/20 01:06:34;;;;;;;9.40;4.10;;;;;;;10.78;33.64;100043.42;117254;1186;24712;-46
2022/04/20 01:09:19;;;;;;;6.50;4.00;;;;;;;10.77;33.62;100046.08;117281;1186;24305;-54
2022/04/20 01:11:50;;;;;;;9.00;4.20;;;;;;;10.71;33.69;100048.64;117260;1185;21862;-46
2022/04/20 01:14:19;;;;;;;9.20;4.10;;;;;;;10.67;33.77;100048.71;117144;1182;22964;-46
2022/04/20 01:16:49;;;;;;;8.70;4.50;;;;;;;10.60;33.70;100052.70;117143;1186;21945;-47
2022/04/20 01:19:19;;;;;;;9.40;4.40;;;;;;;10.55;33.77;100055.42;117283;1186;21843;-54
2022/04/20 01:22:08;;;;;;;9.00;4.50;;;;;;;10.52;33.72;100052.13;117142;1189;21981;-46
2022/04/20 01:24:37;;;;;;;9.50;4.60;;;;;;;10.52;33.74;100052.48;117308;1186;21852;-46
2022/04/20 01:27:25;;;;;;;8.60;4.20;;;;;;;10.52;33.83;100054.76;117277;1186;24717;-54
2022/04/20 01:29:55;;;;;;;7.90;4.40;;;;;;;10.52;33.86;100058.28;117345;1186;23589;-46
2022/04/20 01:32:38;;;;;;;8.10;4.20;;;;;;;10.52;33.86;100061.42;117228;1186;24774;-47
2022/04/20 01:35:08;;;;;;;8.50;4.70;;;;;;;10.49;33.95;100064.13;117309;1186;21880;-45
2022/04/20 01:37:36;;;;;;;8.10;4.40;;;;;;;10.51;34.00;100068.12;117283;1186;21867;-46
2022/04/20 01:40:06;;;;;;;8.10;4.20;;;;;;;10.53;34.06;100070.01;117251;1186;23448;-54
2022/04/20 01:42:35;;;;;;;6.60;4.10;;;;;;;10.52;33.97;100066.00;117248;1186;21877;-55
2022/04/20 01:45:03;;;;;;;10.10;4.50;;;;;;;10.51;34.05;100071.80;117322;1186;23644;-46
2022/04/20 01:47:32;;;;;;;7.50;3.90;;;;;;;10.50;34.06;100069.35;117330;1180;21857;-46
2022/04/20 01:50:00;;;;;;;5.60;3.30;;;;;;;10.49;34.00;100067.79;117295;1186;23462;-45
2022/04/20 01:52:32;;;;;;;3.80;2.40;;;;;;;10.54;34.09;100067.36;117302;1186;21845;-54
2022/04/20 01:55:00;;;;;;;5.50;2.70;;;;;;;10.62;34.34;100070.02;117310;1186;23555;-46
2022/04/20 01:57:29;;;;;;;10.50;3.50;;;;;;;10.71;34.42;100064.61;117313;1186;23476;-54
2022/04/20 02:00:17;;;;;;;6.00;3.80;;;;;;;10.77;34.31;100066.26;117261;1186;22930;-54
2022/04/20 02:02:46;;;;;;;9.20;3.50;;;;;;;10.77;34.35;100067.84;117293;1185;24262;-46
2022/04/20 02:05:14;;;;;;;8.40;3.80;;;;;;;10.74;34.33;100076.31;117344;1185;23552;-46
2022/04/20 02:07:44;;;;;;;4.90;2.60;;;;;;;10.77;34.24;100079.42;117364;1185;21864;-54
2022/04/20 02:10:12;;;;;;;4.60;2.60;;;;;;;10.74;34.40;100075.44;117314;1186;23091;-54
2022/04/20 02:12:41;;;;;;;5.70;3.00;;;;;;;10.76;34.53;100074.00;117340;1185;22968;-47
2022/04/20 02:15:10;;;;;;;4.90;2.40;;;;;;;10.79;34.60;100075.17;117297;1186;23440;-46
2022/04/20 02:17:40;;;;;;;6.10;2.40;;;;;;;10.82;34.68;100075.98;117291;1186;23479;-54
2022/04/20 02:20:29;;;;;;;4.80;2.80;;;;;;;10.84;34.76;100080.68;117265;1188;21839;-54
2022/04/20 02:22:57;;;;;;;4.40;2.50;;;;;;;10.85;34.62;100076.80;117310;1186;24159;-54
2022/04/20 02:25:45;;;;;;;4.10;2.60;;;;;;;10.86;34.84;100082.95;117238;1185;21976;-54
2022/04/20 02:28:14;;;;;;;4.40;2.90;;;;;;;10.84;34.75;100080.34;117304;1187;21843;-46
2022/04/20 02:30:43;;;;;;;5.50;2.50;;;;;;;10.80;34.87;100076.20;117292;1185;23586;-54
2022/04/20 02:33:11;;;;;;;4.40;2.70;;;;;;;10.77;34.90;100079.96;117263;1189;22359;-46
2022/04/20 02:35:40;;;;;;;3.80;1.70;;;;;;;10.73;34.86;100083.88;117245;1185;23579;-55
2022/04/20 02:38:10;;;;;;;4.50;2.80;;;;;;;10.69;34.92;100076.92;117280;1186;22946;-55
2022/04/20 02:40:40;;;;;;;5.10;2.50;;;;;;;10.65;35.04;100078.57;117302;1186;23000;-54
2022/04/20 02:43:27;;;;;;;4.20;2.40;;;;;;;10.64;35.11;100078.41;117262;1186;23575;-55
2022/04/20 02:45:56;;;;;;;4.40;2.60;;;;;;;10.65;34.92;100077.70;117246;1185;21885;-55
2022/04/20 02:48:24;;;;;;;4.00;2.50;;;;;;;10.63;35.00;100081.59;117303;1186;21872;-47
2022/04/20 02:50:53;;;;;;;7.00;2.40;;;;;;;10.58;35.06;100081.15;117150;1188;21859;-56
2022/04/20 02:53:23;;;;;;;3.90;2.20;;;;;;;10.57;35.16;100084.86;117239;1186;23555;-47
2022/04/20 02:55:52;;;;;;;4.30;2.20;;;;;;;10.56;35.16;100085.57;117153;1186;22933;-47
2022/04/20 02:58:21;;;;;;;3.80;2.10;;;;;;;10.57;35.24;100083.98;117306;1186;23567;-47
2022/04/20 03:00:49;;;;;;;4.70;2.60;;;;;;;10.55;35.22;100085.95;117317;1186;23565;-55
2022/04/20 03:03:18;;;;;;;3.00;1.90;;;;;;;10.55;35.22;100091.56;117300;1186;21853;-55
2022/04/20 03:05:53;;;;;;;6.10;2.40;;;;;;;10.51;35.36;100094.95;117241;1186;22806;-46
2022/04/20 03:08:23;;;;;;;4.40;2.00;;;;;;;10.51;35.39;100094.27;117309;1186;23574;-55
2022/04/20 03:11:12;;;;;;;5.80;2.40;;;;;;;10.50;35.36;100093.04;117187;1184;21846;-54
2022/04/20 03:13:40;;;;;;;3.60;2.10;;;;;;;10.48;35.46;100093.60;117239;1186;23558;-47
2022/04/20 03:16:14;;;;;;;4.00;2.00;;;;;;;10.52;35.60;100097.23;117256;1186;23509;-55
2022/04/20 03:18:43;;;;;;;5.20;2.30;;;;;;;10.49;35.62;100096.02;117701;1185;23005;-53
2022/04/20 03:21:11;;;;;;;4.20;2.00;;;;;;;10.45;35.64;100095.58;117340;1186;23458;-46
2022/04/20 03:23:40;;;;;;;3.60;2.20;;;;;;;10.48;35.59;100101.32;117182;1186;21849;-46
2022/04/20 03:26:08;;;;;;;4.90;2.20;;;;;;;10.50;35.77;100105.33;117243;1186;23450;-46
2022/04/20 03:28:37;;;;;;;3.00;1.80;;;;;;;10.42;35.75;100105.27;117262;1189;21869;-47
2022/04/20 03:31:05;;;;;;;6.30;2.50;;;;;;;10.37;35.68;100108.46;117234;1186;23447;-54
2022/04/20 03:33:35;;;;;;;3.60;2.40;;;;;;;10.35;35.84;100107.98;117288;1185;22996;-55
2022/04/20 03:36:07;;;;;;;8.60;2.20;;;;;;;10.40;35.77;100106.52;117249;1186;23790;-54
2022/04/20 03:38:35;;;;;;;3.80;1.90;;;;;;;10.40;35.72;100108.45;117246;1186;21855;-46
2022/04/20 03:41:04;;;;;;;8.30;2.70;;;;;;;10.38;35.79;100112.33;117282;1185;23473;-46
2022/04/20 03:43:33;;;;;;;4.80;2.20;;;;;;;10.36;35.82;100111.13;117325;1186;23023;-55
2022/04/20 03:46:01;;;;;;;8.90;2.10;;;;;;;10.28;35.95;100112.83;117319;1186;24165;-55
2022/04/20 03:48:30;;;;;;;4.40;2.40;;;;;;;10.28;36.11;100117.38;117270;1186;23453;-54
2022/04/20 03:50:58;;;;;;;3.50;2.00;;;;;;;10.25;36.01;100123.57;117349;1186;23461;-54
2022/04/20 03:53:27;;;;;;;4.80;2.30;;;;;;;10.22;36.11;100127.30;117265;1186;23472;-47
2022/04/20 03:55:57;;;;;;;4.50;2.70;;;;;;;10.18;36.05;100134.36;117269;1186;23461;-46
2022/04/20 03:58:25;;;;;;;3.80;2.00;;;;;;;10.15;36.15;100133.89;117324;1186;23453;-46
2022/04/20 04:00:54;;;;;;;4.10;2.70;;;;;;;10.12;36.27;100134.80;117305;1183;23469;-54
2022/04/20 04:03:23;;;;;;;3.60;2.00;;;;;;;10.12;36.36;100137.27;117326;1185;23445;-46
2022/04/20 04:05:52;;;;;;;4.00;2.30;;;;;;;10.07;36.49;100138.73;117336;1186;23499;-54
2022/04/20 04:08:40;;;;;;;4.50;2.50;;;;;;;10.05;36.53;100136.31;117225;1185;22919;-46
2022/04/20 04:11:10;;;;;;;12.60;2.80;;;;;;;10.05;36.75;100133.15;117315;1185;23446;-47
2022/04/20 04:13:38;;;;;;;5.30;2.40;;;;;;;10.08;36.77;100135.39;117220;1186;23485;-54
2022/04/20 04:16:08;;;;;;;3.70;2.70;;;;;;;10.11;36.95;100136.91;117289;1185;23475;-46
2022/04/20 04:18:37;;;;;;;4.10;2.20;;;;;;;10.18;36.85;100141.73;117253;1186;23478;-54
2022/04/20 04:21:25;;;;;;;4.90;2.20;;;;;;;10.29;36.92;100138.77;117229;1186;21980;-55
2022/04/20 04:23:53;;;;;;;6.50;2.40;;;;;;;10.36;36.97;100136.56;117238;1185;23574;-54
2022/04/20 04:26:22;;;;;;;6.80;2.30;;;;;;;10.44;36.85;100136.81;117185;1181;23579;-55
2022/04/20 04:28:50;;;;;;;3.90;2.60;;;;;;;10.52;37.05;100137.23;117299;1186;23515;-54
2022/04/20 04:31:42;;;;;;;5.10;2.90;;;;;;;10.60;36.99;100137.79;117210;1186;21853;-47
2022/04/20 04:34:10;;;;;;;4.70;2.50;;;;;;;10.67;37.13;100137.50;117261;1186;21843;-47
2022/04/20 04:36:39;;;;;;;4.60;2.30;;;;;;;10.73;37.10;100141.79;117340;1186;22628;-55
2022/04/20 04:39:08;;;;;;;3.10;2.10;;;;;;;10.78;37.02;100141.19;118002;1182;23555;-55
2022/04/20 04:41:46;;;;;;;4.30;1.90;;;;;;;10.83;36.93;100146.17;117297;1185;24161;-55
2022/04/20 04:44:15;;;;;;;7.90;4.30;;;;;;;10.89;37.21;100147.32;117301;1186;21864;-48
2022/04/20 04:49:51;;;;;;;4.60;3.10;;;;;;;10.98;37.24;100148.39;117210;1186;21867;-54
2022/04/20 04:52:20;;;;;;;4.30;2.60;;;;;;;10.95;37.15;100149.13;117245;1185;23449;-55
2022/04/20 04:54:48;;;;;;;4.40;2.20;;;;;;;10.95;37.33;100151.23;117342;1186;21973;-55
2022/04/20 04:57:17;;;;;;;3.40;2.00;;;;;;;10.96;37.26;100155.08;117360;1185;23478;-46
2022/04/20 05:00:07;;;;;;;4.20;2.20;;;;;;;10.95;37.23;100158.80;117247;1189;21837;-54
2022/04/20 05:02:36;;;;;;;3.30;2.10;;;;;;;10.96;37.34;100154.75;117236;1182;22961;-54
2022/04/20 05:05:05;;;;;;;5.50;2.20;;;;;;;10.97;37.29;100160.00;117110;1186;21859;-54
2022/04/20 05:07:33;;;;;;;4.50;2.10;;;;;;;10.99;37.40;100162.77;117251;1186;21866;-54
2022/04/20 05:10:02;;;;;;;3.20;2.00;;;;;;;10.98;37.26;100168.21;117163;1186;22659;-47
2022/04/20 05:12:35;;;;;;;3.60;2.20;;;;;;;10.93;37.35;100164.09;117212;1182;23772;-47
2022/04/20 05:15:23;;;;;;;3.90;2.20;;;;;;;10.94;37.54;100170.23;117198;1188;21873;-46
2022/04/20 05:18:09;;;;;;;3.80;2.10;;;;;;;10.97;37.53;100175.44;117201;1186;23554;-47
2022/04/20 05:20:57;;;;;;;5.00;2.60;;;;;;;11.00;37.52;100181.02;117187;1185;21896;-47
2022/04/20 05:23:26;;;;;;;4.40;2.10;;;;;;;11.02;37.43;100184.84;117287;1186;24178;-46
2022/04/20 05:25:56;;;;;;;3.90;2.10;;;;;;;11.07;37.54;100185.97;117319;1184;23576;-47
2022/04/20 05:28:25;;;;;;;6.00;2.30;;;;;;;11.13;37.65;100185.70;117300;1186;22831;-46
2022/04/20 05:30:54;;;;;;;4.00;2.20;;;;;;;11.20;37.68;100188.05;117254;1185;23554;-47
2022/04/20 05:33:23;;;;;;;3.80;2.10;;;;;;;11.27;37.88;100187.90;117108;1186;22998;-47
2022/04/20 05:35:51;;;;;;;7.50;3.80;;;;;;;11.33;37.54;100182.00;117282;1186;23653;-54
2022/04/20 05:43:56;;;;;;;5.60;2.70;;;;;;;11.47;37.73;100178.59;117278;1185;23456;-47
2022/04/20 05:46:25;;;;;;;5.60;2.70;;;;;;;11.53;37.84;100179.34;117310;1185;23475;-47
2022/04/20 05:49:14;;;;;;;5.70;2.40;;;;;;;11.59;37.85;100174.84;117176;1186;21898;-55
2022/04/20 05:51:44;;;;;;;4.30;2.50;;;;;;;11.65;37.75;100175.95;117304;1186;21902;-48
2022/04/20 05:54:12;;;;;;;4.80;2.70;;;;;;;11.73;37.96;100178.59;117338;1186;23555;-46
2022/04/20 05:56:41;;;;;;;4.20;2.30;;;;;;;11.83;37.95;100176.11;117286;1186;23480;-55
2022/04/20 05:59:29;;;;;;;3.70;2.10;;;;;;;11.95;37.82;100173.59;117138;1186;21862;-55
2022/04/20 06:01:59;;;;;;;7.10;2.30;;;;;;;12.00;37.80;100173.31;117258;1185;22208;-54
2022/04/20 06:04:39;;;;;;;3.90;2.70;;;;;;;12.07;37.59;100174.23;117283;1181;24832;-46
2022/04/20 06:07:07;;;;;;;5.20;2.60;;;;;;;12.10;37.76;100172.94;117214;1186;23475;-46
2022/04/20 06:09:55;;;;;;;4.60;2.60;;;;;;;12.17;37.60;100171.90;117251;1186;21967;-51
2022/04/20 06:12:24;;;;;;;4.40;2.70;;;;;;;12.22;37.71;100176.19;117253;1186;23529;-47
2022/04/20 06:14:52;;;;;;;4.90;2.60;;;;;;;12.27;37.55;100176.26;117320;1186;23023;-55
2022/04/20 06:17:41;;;;;;;6.10;2.80;;;;;;;12.32;37.45;100177.04;117201;1188;21855;-47
2022/04/20 06:20:11;;;;;;;5.50;2.70;;;;;;;12.39;37.70;100177.76;117287;1186;23522;-47
2022/04/20 06:22:59;;;;;;;6.60;2.80;;;;;;;12.49;37.60;100177.17;117264;1189;21855;-47
2022/04/20 06:25:29;;;;;;;8.50;3.30;;;;;;;12.57;37.50;100172.77;117221;1185;23553;-47
2022/04/20 06:27:59;;;;;;;5.00;2.90;;;;;;;12.66;37.70;100171.12;117329;1186;23557;-47
2022/04/20 06:30:27;;;;;;;4.70;2.40;;;;;;;12.77;37.62;100169.12;117273;1186;22921;-47
2022/04/20 06:32:55;;;;;;;4.50;2.80;;;;;;;12.89;37.79;100167.92;117265;1185;21998;-54
2022/04/20 06:35:25;;;;;;;4.90;2.50;;;;;;;13.00;37.55;100170.11;117155;1185;24139;-52
2022/04/20 06:37:54;;;;;;;5.10;3.00;;;;;;;13.11;37.64;100169.65;117281;1185;23452;-47
2022/04/20 06:40:23;;;;;;;4.60;2.50;;;;;;;13.24;37.74;100170.20;117251;1186;24159;-55
2022/04/20 06:42:52;;;;;;;4.40;2.70;;;;;;;13.33;37.51;100164.83;117296;1186;21892;-55
2022/04/20 06:45:21;;;;;;;4.70;2.70;;;;;;;13.46;37.61;100164.36;117257;1186;23582;-47
2022/04/20 06:48:04;;;;;;;5.40;2.60;;;;;;;13.60;37.62;100165.73;117230;1186;21892;-47
2022/04/20 06:50:34;;;;;;;5.30;3.00;;;;;;;13.71;37.63;100170.16;117225;1185;22642;-48
2022/04/20 06:58:55;;;;;;;4.90;2.40;;;;;;;13.92;37.52;100159.86;117242;1185;21858;-48
2022/04/20 07:01:24;;;;;;;4.90;3.10;;;;;;;14.05;37.49;100160.20;117292;1185;21852;-55
2022/04/20 07:03:52;;;;;;;5.90;3.20;;;;;;;14.21;37.52;100157.05;117240;1186;21843;-55
2022/04/20 07:06:20;;;;;;;7.50;2.80;;;;;;;14.42;37.65;100156.77;118057;1185;23548;-55
2022/04/20 07:08:49;;;;;;;5.50;3.30;;;;;;;14.58;37.47;100151.48;118008;1186;24149;-54
2022/04/20 07:11:37;;;;;;;4.50;3.00;;;;;;;14.71;37.46;100151.09;117236;1186;23493;-55
2022/04/20 07:14:06;;;;;;;6.00;3.10;;;;;;;14.74;37.27;100155.42;117301;1186;21839;-47
2022/04/20 07:16:35;;;;;;;4.90;3.00;;;;;;;14.65;37.11;100149.33;117253;1185;22931;-47
2022/04/20 07:19:06;;;;;;;5.20;3.20;;;;;;;14.60;37.11;100148.93;117294;1186;23597;-55
2022/04/20 07:21:35;;;;;;;6.40;3.20;;;;;;;14.51;36.89;100145.35;117221;1186;23569;-55
2022/04/20 07:24:24;;;;;;;6.90;3.60;;;;;;;14.41;37.06;100141.96;117128;1185;21841;-55
2022/04/20 07:26:53;;;;;;;5.70;3.20;;;;;;;14.40;37.14;100134.94;117346;1186;22930;-47
2022/04/20 07:29:21;;;;;;;8.80;2.70;;;;;;;14.52;37.22;100137.38;117335;1186;24708;-55
2022/04/20 07:31:50;;;;;;;6.30;3.10;;;;;;;14.64;37.03;100135.73;117278;1185;23477;-56
2022/04/20 07:34:20;;;;;;;6.00;3.90;;;;;;;14.63;37.02;100137.20;117254;1185;24139;-47
2022/04/20 07:36:50;;;;;;;5.40;3.60;;;;;;;14.64;36.82;100133.63;117284;1186;24176;-47
2022/04/20 07:39:19;;;;;;;4.80;3.00;;;;;;;14.65;36.80;100130.42;117268;1181;22963;-47
2022/04/20 07:41:52;;;;;;;6.60;3.40;;;;;;;14.63;36.77;100136.65;117263;1186;24164;-54
2022/04/20 07:44:21;;;;;;;6.10;3.80;;;;;;;14.64;36.79;100136.30;117331;1186;24164;-48
2022/04/20 07:46:50;;;;;;;5.10;3.50;;;;;;;14.65;36.72;100135.53;117232;1186;24185;-55
2022/04/20 07:52:25;;;;;;;7.00;3.80;;;;;;;14.47;36.47;100138.23;117275;1185;21880;-55
2022/04/20 07:54:54;;;;;;;8.00;3.70;;;;;;;14.27;36.23;100137.29;117287;1186;24161;-47
2022/04/20 07:57:22;;;;;;;5.10;3.20;;;;;;;14.11;36.34;100138.14;117292;1186;23475;-52
2022/04/20 07:59:51;;;;;;;6.30;3.70;;;;;;;14.03;36.36;100134.33;117321;1186;23481;-55
2022/04/20 08:02:21;;;;;;;6.50;3.90;;;;;;;13.96;36.31;100128.34;117237;1186;24158;-47
2022/04/20 08:04:49;;;;;;;6.10;3.70;;;;;;;13.96;36.39;100132.23;117287;1186;21852;-56
2022/04/20 08:07:37;;;;;;;10.60;5.10;;;;;;;14.07;36.45;100135.61;117171;1188;21901;-54
2022/04/20 08:10:07;;;;;;;7.30;4.40;;;;;;;14.16;36.31;100135.86;117234;1186;23554;-55
2022/04/20 08:12:40;;;;;;;6.20;3.90;;;;;;;14.22;36.24;100134.44;117191;1186;22929;-55
2022/04/20 08:15:09;;;;;;;5.70;3.70;;;;;;;14.34;36.22;100137.43;117263;1186;21849;-55
2022/04/20 08:17:38;;;;;;;5.60;3.70;;;;;;;14.43;36.11;100133.95;117293;1185;22026;-48
2022/04/20 08:20:23;;;;;;;6.10;3.40;;;;;;;14.45;36.08;100135.30;117248;1186;23451;-47
2022/04/20 08:22:52;;;;;;;5.80;3.80;;;;;;;14.45;35.99;100137.77;117327;1185;23470;-47
2022/04/20 08:25:41;;;;;;;6.10;3.90;;;;;;;14.43;36.02;100134.67;117176;1186;21886;-55
2022/04/20 08:28:10;;;;;;;6.30;4.00;;;;;;;14.45;35.93;100139.88;117308;1186;23568;-47
2022/04/20 08:30:39;;;;;;;6.00;3.60;;;;;;;14.52;35.92;100135.98;117332;1186;22928;-55
2022/04/20 08:33:08;;;;;;;6.30;3.50;;;;;;;14.58;35.87;100141.60;117323;1186;22110;-47
2022/04/20 08:35:38;;;;;;;6.50;4.00;;;;;;;14.61;35.86;100136.94;117335;1188;21896;-55
2022/04/20 08:38:06;;;;;;;6.30;3.40;;;;;;;14.59;35.66;100145.64;117335;1185;23446;-55
2022/04/20 08:40:36;;;;;;;6.70;3.90;;;;;;;14.54;35.78;100142.23;117238;1186;23557;-55
2022/04/20 08:43:06;;;;;;;5.80;3.40;;;;;;;14.62;35.71;100142.19;117277;1186;23557;-47
2022/04/20 08:45:37;;;;;;;7.60;4.30;;;;;;;14.69;35.77;100139.14;117266;1185;23664;-48
2022/04/20 08:48:25;;;;;;;;;;;;;;;14.77;35.62;100143.31;117238;1186;23535;-55
2022/04/20 08:50:54;;;;;;;5.10;3.40;;;;;;;14.77;35.56;100143.49;117280;1186;23454;-47
2022/04/20 08:53:22;;;;;;;15.10;9.00;;;;;;;14.82;35.57;100138.20;117245;1186;24213;-47
2022/04/20 08:58:48;;;;;;;4.60;3.10;;;;;;;14.81;35.37;100140.31;117229;1186;23504;-55
2022/04/20 09:01:17;;;;;;;5.30;3.20;;;;;;;14.82;35.30;100139.05;117291;1186;22008;-47
2022/04/20 09:03:46;;;;;;;6.50;3.40;;;;;;;14.84;35.41;100139.18;117271;1186;23595;-56
2022/04/20 09:06:35;;;;;;;4.40;2.70;;;;;;;14.88;35.28;100137.11;117229;1183;24162;-55
2022/04/20 09:09:04;;;;;;;5.30;3.50;;;;;;;14.93;35.31;100135.72;117260;1185;24180;-46
2022/04/20 09:11:38;;;;;;;4.50;2.90;;;;;;;14.94;35.19;100138.13;117231;1186;23554;-47
2022/04/20 09:14:16;;;;;;;6.80;3.70;;;;;;;14.89;35.15;100142.89;117221;1182;21860;-47
2022/04/20 09:17:04;;;;;;;4.60;3.10;;;;;;;14.89;35.12;100145.73;117210;1189;21821;-55
2022/04/20 09:19:32;;;;;;;6.80;3.20;;;;;;;14.83;35.01;100143.27;117227;1186;21854;-55
2022/04/20 09:22:00;;;;;;;6.10;3.10;;;;;;;14.86;35.16;100146.02;117319;1186;23464;-55
2022/04/20 09:24:28;;;;;;;4.80;3.50;;;;;;;14.86;35.07;100153.98;117290;1186;23576;-55
2022/04/20 09:26:57;;;;;;;4.70;3.50;;;;;;;14.77;35.10;100150.22;117028;1187;23640;-47
2022/04/20 09:29:27;;;;;;;5.70;3.30;;;;;;;14.64;34.98;100151.46;117276;1185;22917;-47
2022/04/20 09:31:55;;;;;;;4.30;3.20;;;;;;;14.57;35.02;100156.47;117251;1186;23579;-55
2022/04/20 09:34:29;;;;;;;7.00;3.70;;;;;;;14.50;35.01;100161.28;117332;1185;21947;-55
2022/04/20 09:37:20;;;;;;;5.80;3.70;;;;;;;14.48;35.03;100167.89;117160;1182;22908;-55
2022/04/20 09:39:52;;;;;;;8.80;3.80;;;;;;;14.50;34.97;100172.40;117252;1186;22620;-55
2022/04/20 09:42:21;;;;;;;6.00;3.70;;;;;;;14.42;34.97;100170.54;117263;1186;22620;-55
2022/04/20 09:44:56;;;;;;;7.30;4.30;;;;;;;14.22;34.87;100163.92;117177;1186;21867;-55
2022/04/20 09:50:21;;;;;;;6.70;3.40;;;;;;;14.02;34.93;100154.65;117204;1186;21950;-55
2022/04/20 09:52:50;;;;;;;;;;;;;;;14.08;35.18;100159.93;117274;1185;23996;-55
2022/04/20 09:55:37;;;;;;;6.20;3.60;;;;;;;14.16;35.18;100157.75;117255;1182;23632;-50
2022/04/20 09:58:12;;;;;;;5.40;3.10;;;;;;;14.25;35.12;100157.46;117837;1186;22901;-46
2022/04/20 10:01:00;;;;;;;7.30;3.90;;;;;;;14.39;35.17;100161.99;117248;1180;21827;-47
2022/04/20 10:03:31;;;;;;;5.60;3.60;;;;;;;14.45;35.12;100161.27;117264;1184;23517;-46
2022/04/20 10:06:00;;;;;;;4.70;3.10;;;;;;;14.46;35.00;100160.35;117291;1186;24134;-47
2022/04/20 10:08:29;;;;;;;6.30;3.40;;;;;;;14.49;35.12;100156.20;117238;1186;22918;-54
2022/04/20 10:11:17;;;;;;;6.70;3.60;;;;;;;14.51;35.02;100162.13;117177;1185;21855;-46
2022/04/20 10:16:05;;;;;;;8.00;4.20;;;;;;;14.53;35.10;100162.23;117240;1185;21856;-47
2022/04/20 10:16:34;;;;;;;5.20;3.60;;;;;;;14.53;34.98;100157.66;117326;1185;23468;-56
2022/04/20 10:19:03;;;;;;;6.70;3.60;;;;;;;14.64;35.20;100159.06;117192;1185;23456;-46
2022/04/20 10:21:31;;;;;;;8.50;3.90;;;;;;;14.82;35.28;100158.13;117161;1187;22517;-47
2022/04/20 10:24:05;;;;;;;6.20;3.50;;;;;;;14.90;35.18;100159.14;117065;1186;24183;-47
2022/04/20 10:26:34;;;;;;;6.50;3.60;;;;;;;14.88;35.17;100155.30;117260;1182;21843;-46
2022/04/20 10:29:27;;;;;;;5.90;3.80;;;;;;;14.93;35.25;100157.96;117313;1185;22610;-47
2022/04/20 10:32:22;;;;;;;5.30;3.70;;;;;;;14.93;35.16;100160.42;117097;1186;23552;-46
2022/04/20 10:34:52;;;;;;;8.20;3.30;;;;;;;14.84;35.00;100160.02;117058;1187;21861;-47
2022/04/20 10:37:31;;;;;;;6.30;3.50;;;;;;;14.78;34.98;100161.13;117331;1185;21857;-55
2022/04/20 10:40:17;;;;;;;7.50;4.30;;;;;;;14.75;35.16;100166.89;117138;1186;23500;-47
2022/04/20 10:43:23;;;;;;;5.20;4.00;;;;;;;14.70;35.01;100164.02;117361;1186;23667;-47
2022/04/20 10:46:17;;;;;;;5.70;3.80;;;;;;;14.67;35.15;100164.25;117243;1186;21855;-55
2022/04/20 10:48:47;;;;;;;14.20;4.30;;;;;;;14.69;35.00;100152.20;117234;1186;21857;-55
2022/04/20 10:51:17;;;;;;;6.90;3.80;;;;;;;14.71;35.09;100162.77;117272;1185;22156;-55
2022/04/20 10:53:48;;;;;;;5.30;3.90;;;;;;;14.63;35.09;100159.09;117271;1185;22807;-48
2022/04/20 10:56:20;;;;;;;5.70;3.80;;;;;;;14.58;35.02;100164.03;117260;1185;22754;-47
2022/04/20 10:59:08;;;;;;;6.10;3.90;;;;;;;14.52;35.16;100159.64;117076;1186;22636;-47
2022/04/20 11:02:03;;;;;;;5.60;3.40;;;;;;;14.53;35.09;100161.70;117244;1186;23004;-55
2022/04/20 11:04:50;;;;;;;5.30;3.80;;;;;;;14.51;35.06;100160.89;117210;1185;22855;-55
2022/04/20 11:07:30;;;;;;;7.40;3.70;;;;;;;14.52;35.12;100159.27;117237;1189;21877;-55
2022/04/20 11:10:00;;;;;;;4.90;3.90;;;;;;;14.60;35.15;100152.66;117176;1185;23454;-55
2022/04/20 11:18:44;;;;;;;5.80;3.60;;;;;;;15.28;35.51;100150.02;117971;1186;23474;-48
2022/04/20 11:21:16;;;;;;;5.70;3.40;;;;;;;15.47;35.48;100150.96;117239;1186;23650;-55
2022/04/20 11:24:15;;;;;;;4.50;3.20;;;;;;;15.52;35.30;100150.05;117212;1186;21862;-55
2022/04/20 11:26:51;;;;;;;6.90;3.60;;;;;;;15.63;35.38;100150.40;117162;1186;21854;-55
2022/04/20 11:29:29;;;;;;;5.00;3.60;;;;;;;15.65;35.33;100148.02;117285;1185;23557;-48
2022/04/20 11:32:17;;;;;;;4.60;3.50;;;;;;;15.68;35.40;100147.20;117274;1185;22131;-55
2022/04/20 11:34:46;;;;;;;5.70;3.40;;;;;;;15.88;35.53;100150.73;117142;1187;23450;-54
2022/04/20 11:37:14;;;;;;;8.10;3.80;;;;;;;16.12;35.78;100144.86;117307;1187;23853;-55
2022/04/20 11:39:43;;;;;;;6.20;3.50;;;;;;;16.47;35.89;100138.89;117247;1186;23452;-48
2022/04/20 11:42:32;;;;;;;6.20;3.80;;;;;;;16.79;35.53;100136.33;117238;1186;21868;-48
2022/04/20 11:45:02;;;;;;;7.60;3.50;;;;;;;16.83;35.52;100136.69;117345;1185;23547;-48
2022/04/20 11:47:30;;;;;;;6.50;3.80;;;;;;;16.88;35.38;100134.53;117354;1186;21886;-48
2022/04/20 11:49:59;;;;;;;16.20;8.30;;;;;;;16.87;35.22;100135.27;117270;1182;24228;-48
2022/04/20 11:52:57;;;;;;;5.40;3.80;;;;;;;16.82;35.28;100140.44;116932;1189;24311;-48
2022/04/20 11:55:26;;;;;;;10.90;8.50;;;;;;;16.71;35.01;100139.30;117307;1186;22932;-56
2022/04/20 11:58:11;;;;;;;4.40;3.30;;;;;;;16.61;34.97;100140.08;117106;1186;23503;-53
2022/04/20 12:01:04;;;;;;;4.00;3.00;;;;;;;16.37;34.76;100143.17;117262;1186;21852;-55
2022/04/20 12:03:36;;;;;;;4.60;3.20;;;;;;;16.06;34.64;100145.28;117257;1186;23557;-48
2022/04/20 12:06:06;;;;;;;5.60;3.80;;;;;;;15.93;34.80;100144.89;117239;1186;23586;-55
2022/04/20 12:08:36;;;;;;;4.80;3.40;;;;;;;15.88;34.81;100145.23;117277;1186;22198;-48
2022/04/20 12:11:06;;;;;;;5.40;3.70;;;;;;;15.89;35.00;100143.07;117286;1185;21927;-49
2022/04/20 12:13:36;;;;;;;5.20;3.40;;;;;;;15.95;35.00;100136.48;117323;1186;21870;-47